sensor_id;sensor_type;location;lat;lon;timestamp;temperature;humidity
10453;DHT22;5274;51.992;8.518;2022-12-16T00:02:02;-5.80;99.90
10453;DHT22;5274;51.992;8.518;2022-12-16T00:04:27;-5.80;99.90
10453;DHT22;5274;51.992;8.518;2022-12-16T00:06:53;-5.80;99.90
10453;DHT22;5274;51.992;8.518;2022-12-16T00:09:18;-5.70;99.90
10453;DHT22;5274;51.992;8.518;2022-12-16T00:11:45;-5.70;99.90
10453;DHT22;5274;51.992;8.518;2022-12-16T00:14:10;-5.80;99.90
10453;DHT22;5274;51.992;8.518;2022-12-16T00:16:36;-5.80;99.90
10453;DHT22;5274;51.992;8.518;2022-12-16T00:19:01;-5.80;99.90
10453;DHT22;5274;51.992;8.518;2022-12-16T00:21:27;-5.80;99.90
10453;DHT22;5274;51.992;8.518;2022-12-16T00:23:54;-5.80;99.90
10453;DHT22;5274;51.992;8.518;2022-12-16T00:26:20;-5.80;99.90
10453;DHT22;5274;51.992;8.518;2022-12-16T00:28:46;-5.80;99.90
10453;DHT22;5274;51.992;8.518;2022-12-16T00:31:11;-5.90;99.90
10453;DHT22;5274;51.992;8.518;2022-12-16T00:33:37;-5.90;99.90
10453;DHT22;5274;51.992;8.518;2022-12-16T00:36:03;-5.90;99.90
10453;DHT22;5274;51.992;8.518;2022-12-16T00:38:28;-5.80;99.90
10453;DHT22;5274;51.992;8.518;2022-12-16T00:40:54;-5.90;99.90
10453;DHT22;5274;51.992;8.518;2022-12-16T00:43:20;-5.90;99.90
10453;DHT22;5274;51.992;8.518;2022-12-16T00:45:46;-5.90;99.90
10453;DHT22;5274;51.992;8.518;2022-12-16T00:48:12;-5.90;99.90
10453;DHT22;5274;51.992;8.518;2022-12-16T00:50:38;-5.90;99.90
10453;DHT22;5274;51.992;8.518;2022-12-16T00:53:03;-5.90;99.90
10453;DHT22;5274;51.992;8.518;2022-12-16T00:55:29;-5.90;99.90
10453;DHT22;5274;51.992;8.518;2022-12-16T00:57:55;-5.90;99.90
10453;DHT22;5274;51.992;8.518;2022-12-16T01:00:21;-5.90;99.90
10453;DHT22;5274;51.992;8.518;2022-12-16T01:02:48;-5.90;99.90
10453;DHT22;5274;51.992;8.518;2022-12-16T01:05:17;-5.90;99.90
10453;DHT22;5274;51.992;8.518;2022-12-16T01:07:45;-5.90;99.90
10453;DHT22;5274;51.992;8.518;2022-12-16T01:10:11;-5.90;99.90
10453;DHT22;5274;51.992;8.518;2022-12-16T01:12:37;-6.00;99.90
10453;DHT22;5274;51.992;8.518;2022-12-16T01:15:05;-6.00;99.90
10453;DHT22;5274;51.992;8.518;2022-12-16T01:17:31;-5.90;99.90
10453;DHT22;5274;51.992;8.518;2022-12-16T01:19:57;-5.90;99.90
10453;DHT22;5274;51.992;8.518;2022-12-16T01:22:23;-5.90;99.90
10453;DHT22;5274;51.992;8.518;2022-12-16T01:24:48;-5.90;99.90
10453;DHT22;5274;51.992;8.518;2022-12-16T01:27:15;-5.90;99.90
10453;DHT22;5274;51.992;8.518;2022-12-16T01:29:41;-5.90;99.90
10453;DHT22;5274;51.992;8.518;2022-12-16T01:32:11;-6.00;99.90
10453;DHT22;5274;51.992;8.518;2022-12-16T01:34:36;-6.00;99.90
10453;DHT22;5274;51.992;8.518;2022-12-16T01:37:02;-6.00;99.90
10453;DHT22;5274;51.992;8.518;2022-12-16T01:39:27;-6.00;99.90
10453;DHT22;5274;51.992;8.518;2022-12-16T01:41:54;-6.00;99.90
10453;DHT22;5274;51.992;8.518;2022-12-16T01:44:22;-6.00;99.90
10453;DHT22;5274;51.992;8.518;2022-12-16T01:47:00;-6.00;99.90
10453;DHT22;5274;51.992;8.518;2022-12-16T01:49:49;-6.00;99.90
10453;DHT22;5274;51.992;8.518;2022-12-16T01:52:22;-6.10;99.90
10453;DHT22;5274;51.992;8.518;2022-12-16T01:55:00;-6.10;99.90
10453;DHT22;5274;51.992;8.518;2022-12-16T01:57:42;-6.00;99.90
10453;DHT22;5274;51.992;8.518;2022-12-16T02:00:09;-6.00;99.90
10453;DHT22;5274;51.992;8.518;2022-12-16T02:02:35;-6.00;99.90
10453;DHT22;5274;51.992;8.518;2022-12-16T02:05:01;-6.00;99.90
10453;DHT22;5274;51.992;8.518;2022-12-16T02:08:06;-6.00;99.90
10453;DHT22;5274;51.992;8.518;2022-12-16T02:25:28;-6.00;99.90
10453;DHT22;5274;51.992;8.518;2022-12-16T02:27:48;-6.00;99.90
10453;DHT22;5274;51.992;8.518;2022-12-16T02:30:34;-6.00;99.90
10453;DHT22;5274;51.992;8.518;2022-12-16T02:35:55;-6.00;99.90
10453;DHT22;5274;51.992;8.518;2022-12-16T02:41:16;-6.00;99.90
10453;DHT22;5274;51.992;8.518;2022-12-16T02:44:00;-6.00;99.90
10453;DHT22;5274;51.992;8.518;2022-12-16T02:46:30;-6.00;99.90
10453;DHT22;5274;51.992;8.518;2022-12-16T02:51:54;-6.00;99.90
10453;DHT22;5274;51.992;8.518;2022-12-16T02:54:20;-6.10;99.90
10453;DHT22;5274;51.992;8.518;2022-12-16T03:05:32;-6.00;99.90
10453;DHT22;5274;51.992;8.518;2022-12-16T03:08:08;-6.00;99.90
10453;DHT22;5274;51.992;8.518;2022-12-16T03:10:44;-6.00;99.90
10453;DHT22;5274;51.992;8.518;2022-12-16T03:13:11;-6.00;99.90
10453;DHT22;5274;51.992;8.518;2022-12-16T03:15:38;-6.10;99.90
10453;DHT22;5274;51.992;8.518;2022-12-16T03:18:07;-6.00;99.90
10453;DHT22;5274;51.992;8.518;2022-12-16T03:20:42;-6.10;99.90
10453;DHT22;5274;51.992;8.518;2022-12-16T03:23:13;-6.10;99.90
10453;DHT22;5274;51.992;8.518;2022-12-16T03:25:43;-6.00;99.90
10453;DHT22;5274;51.992;8.518;2022-12-16T03:28:14;-6.00;99.90
10453;DHT22;5274;51.992;8.518;2022-12-16T03:30:46;-6.00;99.90
10453;DHT22;5274;51.992;8.518;2022-12-16T03:33:27;-6.00;99.90
10453;DHT22;5274;51.992;8.518;2022-12-16T03:35:59;-6.00;99.90
10453;DHT22;5274;51.992;8.518;2022-12-16T03:38:26;-5.90;99.90
10453;DHT22;5274;51.992;8.518;2022-12-16T03:40:53;-5.90;99.90
10453;DHT22;5274;51.992;8.518;2022-12-16T03:43:20;-5.90;99.90
10453;DHT22;5274;51.992;8.518;2022-12-16T03:45:50;-5.90;99.90
10453;DHT22;5274;51.992;8.518;2022-12-16T03:48:21;-6.00;99.90
10453;DHT22;5274;51.992;8.518;2022-12-16T03:50:47;-5.90;99.90
10453;DHT22;5274;51.992;8.518;2022-12-16T03:53:13;-5.90;99.90
10453;DHT22;5274;51.992;8.518;2022-12-16T03:55:38;-5.90;99.90
10453;DHT22;5274;51.992;8.518;2022-12-16T03:58:04;-5.90;99.90
10453;DHT22;5274;51.992;8.518;2022-12-16T04:00:30;-5.90;99.90
10453;DHT22;5274;51.992;8.518;2022-12-16T04:02:56;-6.00;99.90
10453;DHT22;5274;51.992;8.518;2022-12-16T04:05:21;-6.00;99.90
10453;DHT22;5274;51.992;8.518;2022-12-16T04:07:47;-6.00;99.90
10453;DHT22;5274;51.992;8.518;2022-12-16T04:10:13;-6.10;99.90
10453;DHT22;5274;51.992;8.518;2022-12-16T04:12:38;-6.00;99.90
10453;DHT22;5274;51.992;8.518;2022-12-16T04:15:23;-6.10;99.90
10453;DHT22;5274;51.992;8.518;2022-12-16T04:18:15;-6.00;99.90
10453;DHT22;5274;51.992;8.518;2022-12-16T04:21:00;-6.00;99.90
10453;DHT22;5274;51.992;8.518;2022-12-16T04:23:48;-6.00;99.90
10453;DHT22;5274;51.992;8.518;2022-12-16T04:26:33;-6.10;99.90
10453;DHT22;5274;51.992;8.518;2022-12-16T04:29:19;-6.10;99.90
10453;DHT22;5274;51.992;8.518;2022-12-16T04:31:44;-6.00;99.90
10453;DHT22;5274;51.992;8.518;2022-12-16T04:34:10;-5.90;99.90
10453;DHT22;5274;51.992;8.518;2022-12-16T04:37:01;-5.80;99.90
10453;DHT22;5274;51.992;8.518;2022-12-16T04:39:46;-5.70;99.90
10453;DHT22;5274;51.992;8.518;2022-12-16T04:42:30;-5.70;99.90
10453;DHT22;5274;51.992;8.518;2022-12-16T04:45:15;-5.60;99.90
10453;DHT22;5274;51.992;8.518;2022-12-16T04:48:01;-5.50;1.00
10453;DHT22;5274;51.992;8.518;2022-12-16T04:50:45;-5.50;1.00
10453;DHT22;5274;51.992;8.518;2022-12-16T04:53:29;-5.40;1.00
10453;DHT22;5274;51.992;8.518;2022-12-16T04:56:14;-5.40;1.00
10453;DHT22;5274;51.992;8.518;2022-12-16T04:58:58;-5.40;1.00
10453;DHT22;5274;51.992;8.518;2022-12-16T05:01:42;-5.40;1.00
10453;DHT22;5274;51.992;8.518;2022-12-16T05:04:26;-5.40;1.00
10453;DHT22;5274;51.992;8.518;2022-12-16T05:07:10;-5.40;1.00
10453;DHT22;5274;51.992;8.518;2022-12-16T05:09:54;-5.40;1.00
10453;DHT22;5274;51.992;8.518;2022-12-16T05:12:38;-5.40;1.00
10453;DHT22;5274;51.992;8.518;2022-12-16T05:15:22;-5.50;1.00
10453;DHT22;5274;51.992;8.518;2022-12-16T05:18:16;-5.50;1.00
10453;DHT22;5274;51.992;8.518;2022-12-16T05:21:17;-5.60;1.00
10453;DHT22;5274;51.992;8.518;2022-12-16T05:24:01;-5.60;1.00
10453;DHT22;5274;51.992;8.518;2022-12-16T05:26:45;-5.70;1.00
10453;DHT22;5274;51.992;8.518;2022-12-16T05:29:29;-5.70;1.00
10453;DHT22;5274;51.992;8.518;2022-12-16T05:32:13;-5.70;1.00
10453;DHT22;5274;51.992;8.518;2022-12-16T05:34:57;-5.70;1.00
10453;DHT22;5274;51.992;8.518;2022-12-16T05:37:41;-5.70;99.90
10453;DHT22;5274;51.992;8.518;2022-12-16T05:40:25;-5.80;99.90
10453;DHT22;5274;51.992;8.518;2022-12-16T05:43:09;-5.80;99.90
10453;DHT22;5274;51.992;8.518;2022-12-16T05:45:53;-5.80;99.90
10453;DHT22;5274;51.992;8.518;2022-12-16T05:48:37;-5.80;99.90
10453;DHT22;5274;51.992;8.518;2022-12-16T05:51:21;-5.80;99.90
10453;DHT22;5274;51.992;8.518;2022-12-16T05:54:05;-5.90;99.90
10453;DHT22;5274;51.992;8.518;2022-12-16T05:56:49;-5.90;99.90
10453;DHT22;5274;51.992;8.518;2022-12-16T05:59:33;-5.90;99.90
10453;DHT22;5274;51.992;8.518;2022-12-16T06:02:17;-5.90;99.90
10453;DHT22;5274;51.992;8.518;2022-12-16T06:05:01;-5.90;99.90
10453;DHT22;5274;51.992;8.518;2022-12-16T06:07:52;-5.90;99.90
10453;DHT22;5274;51.992;8.518;2022-12-16T06:10:37;-5.80;99.90
10453;DHT22;5274;51.992;8.518;2022-12-16T06:13:21;-5.80;99.90
10453;DHT22;5274;51.992;8.518;2022-12-16T06:16:05;-5.80;99.90
10453;DHT22;5274;51.992;8.518;2022-12-16T06:18:50;-5.80;99.90
10453;DHT22;5274;51.992;8.518;2022-12-16T06:21:34;-5.80;99.90
10453;DHT22;5274;51.992;8.518;2022-12-16T06:24:20;-5.90;99.90
10453;DHT22;5274;51.992;8.518;2022-12-16T06:27:04;-5.90;99.90
10453;DHT22;5274;51.992;8.518;2022-12-16T06:30:09;-5.90;99.90
10453;DHT22;5274;51.992;8.518;2022-12-16T06:32:52;-5.90;99.90
10453;DHT22;5274;51.992;8.518;2022-12-16T06:35:37;-6.00;99.90
10453;DHT22;5274;51.992;8.518;2022-12-16T06:38:21;-6.00;99.90
10453;DHT22;5274;51.992;8.518;2022-12-16T06:41:05;-6.10;99.90
10453;DHT22;5274;51.992;8.518;2022-12-16T06:43:49;-6.20;9.00
10453;DHT22;5274;51.992;8.518;2022-12-16T06:46:33;-6.20;1.00
10453;DHT22;5274;51.992;8.518;2022-12-16T06:49:17;-6.20;1.00
10453;DHT22;5274;51.992;8.518;2022-12-16T06:52:01;-6.30;1.00
10453;DHT22;5274;51.992;8.518;2022-12-16T06:54:45;-5.40;1.00
10453;DHT22;5274;51.992;8.518;2022-12-16T06:57:29;-6.30;1.00
10453;DHT22;5274;51.992;8.518;2022-12-16T07:00:13;-6.40;1.00
10453;DHT22;5274;51.992;8.518;2022-12-16T07:02:57;-6.40;1.00
10453;DHT22;5274;51.992;8.518;2022-12-16T07:05:41;-6.50;1.00
10453;DHT22;5274;51.992;8.518;2022-12-16T07:08:25;-6.50;1.00
10453;DHT22;5274;51.992;8.518;2022-12-16T07:11:09;-6.40;99.90
10453;DHT22;5274;51.992;8.518;2022-12-16T07:13:53;-6.50;99.90
10453;DHT22;5274;51.992;8.518;2022-12-16T07:16:37;-6.50;99.90
10453;DHT22;5274;51.992;8.518;2022-12-16T07:19:21;-6.50;99.90
10453;DHT22;5274;51.992;8.518;2022-12-16T07:22:05;-6.50;99.90
10453;DHT22;5274;51.992;8.518;2022-12-16T07:24:49;-6.50;99.90
10453;DHT22;5274;51.992;8.518;2022-12-16T07:27:33;-6.50;99.90
10453;DHT22;5274;51.992;8.518;2022-12-16T07:30:17;-6.60;99.90
10453;DHT22;5274;51.992;8.518;2022-12-16T07:33:01;-6.60;99.90
10453;DHT22;5274;51.992;8.518;2022-12-16T07:35:45;-6.60;99.90
10453;DHT22;5274;51.992;8.518;2022-12-16T07:38:29;-6.60;99.90
10453;DHT22;5274;51.992;8.518;2022-12-16T07:41:13;-6.60;99.90
10453;DHT22;5274;51.992;8.518;2022-12-16T07:43:57;-6.60;99.90
10453;DHT22;5274;51.992;8.518;2022-12-16T07:46:41;-6.60;99.90
10453;DHT22;5274;51.992;8.518;2022-12-16T07:49:25;-6.60;99.90
10453;DHT22;5274;51.992;8.518;2022-12-16T07:52:09;-6.60;99.90
10453;DHT22;5274;51.992;8.518;2022-12-16T07:54:53;-6.70;99.90
10453;DHT22;5274;51.992;8.518;2022-12-16T07:57:38;-6.70;99.90
10453;DHT22;5274;51.992;8.518;2022-12-16T08:00:22;-6.70;99.90
10453;DHT22;5274;51.992;8.518;2022-12-16T08:03:19;-6.60;99.90
10453;DHT22;5274;51.992;8.518;2022-12-16T08:06:04;-6.60;99.90
10453;DHT22;5274;51.992;8.518;2022-12-16T08:08:48;-6.60;99.90
10453;DHT22;5274;51.992;8.518;2022-12-16T08:11:32;-6.60;99.90
10453;DHT22;5274;51.992;8.518;2022-12-16T08:14:16;-6.60;1.00
10453;DHT22;5274;51.992;8.518;2022-12-16T08:17:00;-6.50;1.00
10453;DHT22;5274;51.992;8.518;2022-12-16T08:19:44;-6.50;1.00
10453;DHT22;5274;51.992;8.518;2022-12-16T08:22:28;-6.50;1.00
10453;DHT22;5274;51.992;8.518;2022-12-16T08:25:12;-6.40;1.00
10453;DHT22;5274;51.992;8.518;2022-12-16T08:27:56;-6.40;1.00
10453;DHT22;5274;51.992;8.518;2022-12-16T08:30:40;-6.30;1.00
10453;DHT22;5274;51.992;8.518;2022-12-16T08:33:24;-6.20;99.90
10453;DHT22;5274;51.992;8.518;2022-12-16T08:36:08;-6.10;99.90
10453;DHT22;5274;51.992;8.518;2022-12-16T08:38:52;-6.10;99.90
10453;DHT22;5274;51.992;8.518;2022-12-16T08:41:36;-6.10;99.90
10453;DHT22;5274;51.992;8.518;2022-12-16T08:44:20;-6.10;99.90
10453;DHT22;5274;51.992;8.518;2022-12-16T08:47:04;-6.10;99.90
10453;DHT22;5274;51.992;8.518;2022-12-16T08:49:48;-6.00;99.90
10453;DHT22;5274;51.992;8.518;2022-12-16T08:52:32;-6.00;99.90
10453;DHT22;5274;51.992;8.518;2022-12-16T08:55:16;-6.00;99.90
10453;DHT22;5274;51.992;8.518;2022-12-16T08:58:01;-5.90;99.90
10453;DHT22;5274;51.992;8.518;2022-12-16T09:00:44;-5.90;99.90
10453;DHT22;5274;51.992;8.518;2022-12-16T09:03:29;-5.80;99.90
10453;DHT22;5274;51.992;8.518;2022-12-16T09:06:13;-5.80;99.90
10453;DHT22;5274;51.992;8.518;2022-12-16T09:08:57;-5.70;99.90
10453;DHT22;5274;51.992;8.518;2022-12-16T09:11:40;-5.60;99.90
10453;DHT22;5274;51.992;8.518;2022-12-16T09:14:25;-5.60;99.90
10453;DHT22;5274;51.992;8.518;2022-12-16T09:17:09;-5.50;99.90
10453;DHT22;5274;51.992;8.518;2022-12-16T09:19:53;-5.50;99.90
10453;DHT22;5274;51.992;8.518;2022-12-16T09:22:37;-5.40;1.00
10453;DHT22;5274;51.992;8.518;2022-12-16T09:25:21;-5.30;1.00
10453;DHT22;5274;51.992;8.518;2022-12-16T09:28:05;-5.20;1.00
10453;DHT22;5274;51.992;8.518;2022-12-16T09:30:49;-5.20;1.00
10453;DHT22;5274;51.992;8.518;2022-12-16T09:33:33;-5.10;1.00
10453;DHT22;5274;51.992;8.518;2022-12-16T09:36:17;-5.00;1.00
10453;DHT22;5274;51.992;8.518;2022-12-16T09:39:01;-4.90;1.00
10453;DHT22;5274;51.992;8.518;2022-12-16T09:42:02;-4.70;1.00
10453;DHT22;5274;51.992;8.518;2022-12-16T09:45:18;-4.70;1.00
10453;DHT22;5274;51.992;8.518;2022-12-16T09:48:20;-4.70;1.00
10453;DHT22;5274;51.992;8.518;2022-12-16T09:51:06;-4.60;1.00
10453;DHT22;5274;51.992;8.518;2022-12-16T09:53:52;-4.50;1.00
10453;DHT22;5274;51.992;8.518;2022-12-16T09:56:38;-4.40;1.00
10453;DHT22;5274;51.992;8.518;2022-12-16T09:59:54;-4.30;1.00
10453;DHT22;5274;51.992;8.518;2022-12-16T10:02:38;-4.20;1.00
10453;DHT22;5274;51.992;8.518;2022-12-16T10:05:31;-4.00;1.00
10453;DHT22;5274;51.992;8.518;2022-12-16T10:11:30;-3.90;1.00
10453;DHT22;5274;51.992;8.518;2022-12-16T10:14:29;-3.90;1.00
10453;DHT22;5274;51.992;8.518;2022-12-16T10:17:21;-3.80;1.00
10453;DHT22;5274;51.992;8.518;2022-12-16T10:23:29;-3.60;1.00
10453;DHT22;5274;51.992;8.518;2022-12-16T10:27:01;-3.50;1.00
10453;DHT22;5274;51.992;8.518;2022-12-16T10:29:46;-3.40;1.00
10453;DHT22;5274;51.992;8.518;2022-12-16T10:35:27;-3.20;1.00
10453;DHT22;5274;51.992;8.518;2022-12-16T10:41:11;-3.00;1.00
10453;DHT22;5274;51.992;8.518;2022-12-16T10:43:57;-3.00;1.00
10453;DHT22;5274;51.992;8.518;2022-12-16T10:46:42;-2.90;1.00
10453;DHT22;5274;51.992;8.518;2022-12-16T10:49:26;-2.80;1.00
10453;DHT22;5274;51.992;8.518;2022-12-16T10:52:13;-2.60;1.00
10453;DHT22;5274;51.992;8.518;2022-12-16T10:55:00;-2.50;1.00
10453;DHT22;5274;51.992;8.518;2022-12-16T11:03:27;-2.20;1.00
10453;DHT22;5274;51.992;8.518;2022-12-16T11:06:58;-2.10;1.00
10453;DHT22;5274;51.992;8.518;2022-12-16T11:09:28;-2.00;1.00
10453;DHT22;5274;51.992;8.518;2022-12-16T11:15:21;-1.80;1.00
10453;DHT22;5274;51.992;8.518;2022-12-16T11:18:10;-1.80;1.00
10453;DHT22;5274;51.992;8.518;2022-12-16T11:21:18;-1.70;5.70
10453;DHT22;5274;51.992;8.518;2022-12-16T11:27:04;-1.50;22.80
10453;DHT22;5274;51.992;8.518;2022-12-16T11:29:59;-1.00;79.50
10453;DHT22;5274;51.992;8.518;2022-12-16T11:32:47;0.70;99.90
10453;DHT22;5274;51.992;8.518;2022-12-16T11:35:33;3.00;99.90
10453;DHT22;5274;51.992;8.518;2022-12-16T11:38:43;4.80;1.00
10453;DHT22;5274;51.992;8.518;2022-12-16T11:44:28;7.80;99.90
10453;DHT22;5274;51.992;8.518;2022-12-16T11:47:39;8.80;1.00
10453;DHT22;5274;51.992;8.518;2022-12-16T11:50:27;9.40;1.00
10453;DHT22;5274;51.992;8.518;2022-12-16T11:53:54;9.90;99.90
10453;DHT22;5274;51.992;8.518;2022-12-16T11:56:43;10.10;32.10
10453;DHT22;5274;51.992;8.518;2022-12-16T11:59:40;10.40;9.00
10453;DHT22;5274;51.992;8.518;2022-12-16T12:02:46;10.60;1.00
10453;DHT22;5274;51.992;8.518;2022-12-16T12:05:42;11.60;1.00
10453;DHT22;5274;51.992;8.518;2022-12-16T12:08:47;11.60;1.00
10453;DHT22;5274;51.992;8.518;2022-12-16T12:11:36;11.80;1.00
10453;DHT22;5274;51.992;8.518;2022-12-16T12:14:45;12.20;1.00
10453;DHT22;5274;51.992;8.518;2022-12-16T12:26:34;9.80;1.00
10453;DHT22;5274;51.992;8.518;2022-12-16T12:42:42;4.40;1.00
10453;DHT22;5274;51.992;8.518;2022-12-16T12:46:02;4.30;99.90
10453;DHT22;5274;51.992;8.518;2022-12-16T12:55:16;4.10;99.90
10453;DHT22;5274;51.992;8.518;2022-12-16T12:58:05;4.00;11.90
10453;DHT22;5274;51.992;8.518;2022-12-16T13:00:52;3.80;1.00
10453;DHT22;5274;51.992;8.518;2022-12-16T13:04:00;3.90;99.90
10453;DHT22;5274;51.992;8.518;2022-12-16T13:06:47;3.80;99.90
10453;DHT22;5274;51.992;8.518;2022-12-16T13:09:36;4.80;1.00
10453;DHT22;5274;51.992;8.518;2022-12-16T13:12:29;5.90;1.00
10453;DHT22;5274;51.992;8.518;2022-12-16T13:15:37;8.30;5.50
10453;DHT22;5274;51.992;8.518;2022-12-16T13:18:26;9.70;1.00
10453;DHT22;5274;51.992;8.518;2022-12-16T13:24:34;11.00;1.00
10453;DHT22;5274;51.992;8.518;2022-12-16T13:27:20;8.90;1.00
10453;DHT22;5274;51.992;8.518;2022-12-16T13:32:57;6.30;1.00
10453;DHT22;5274;51.992;8.518;2022-12-16T13:35:59;5.40;1.00
10453;DHT22;5274;51.992;8.518;2022-12-16T13:38:45;4.90;1.00
10453;DHT22;5274;51.992;8.518;2022-12-16T13:47:33;3.70;1.00
10453;DHT22;5274;51.992;8.518;2022-12-16T13:50:49;3.60;21.20
10453;DHT22;5274;51.992;8.518;2022-12-16T13:53:43;3.40;70.30
10453;DHT22;5274;51.992;8.518;2022-12-16T13:56:40;3.20;61.30
10453;DHT22;5274;51.992;8.518;2022-12-16T13:59:29;3.00;91.20
10453;DHT22;5274;51.992;8.518;2022-12-16T14:05:29;2.80;99.90
10453;DHT22;5274;51.992;8.518;2022-12-16T14:08:16;2.60;1.00
10453;DHT22;5274;51.992;8.518;2022-12-16T14:11:12;2.40;99.90
10453;DHT22;5274;51.992;8.518;2022-12-16T14:14:30;2.30;1.00
10453;DHT22;5274;51.992;8.518;2022-12-16T14:17:20;2.10;1.00
10453;DHT22;5274;51.992;8.518;2022-12-16T14:20:17;2.00;1.00
10453;DHT22;5274;51.992;8.518;2022-12-16T14:23:33;1.80;84.30
10453;DHT22;5274;51.992;8.518;2022-12-16T14:26:20;1.70;24.30
10453;DHT22;5274;51.992;8.518;2022-12-16T14:29:19;1.50;83.80
10453;DHT22;5274;51.992;8.518;2022-12-16T14:32:29;1.40;99.90
10453;DHT22;5274;51.992;8.518;2022-12-16T14:35:17;1.20;1.00
10453;DHT22;5274;51.992;8.518;2022-12-16T14:41:04;0.90;1.00
10453;DHT22;5274;51.992;8.518;2022-12-16T14:43:48;0.80;1.00
10453;DHT22;5274;51.992;8.518;2022-12-16T14:46:32;0.70;25.40
10453;DHT22;5274;51.992;8.518;2022-12-16T14:49:23;0.50;31.60
10453;DHT22;5274;51.992;8.518;2022-12-16T14:52:25;0.50;99.90
10453;DHT22;5274;51.992;8.518;2022-12-16T14:55:26;0.30;99.90
10453;DHT22;5274;51.992;8.518;2022-12-16T14:58:16;0.20;1.00
10453;DHT22;5274;51.992;8.518;2022-12-16T15:01:12;0.10;1.00
10453;DHT22;5274;51.992;8.518;2022-12-16T15:03:57;-0.10;1.00
10453;DHT22;5274;51.992;8.518;2022-12-16T15:06:46;-0.30;99.90
10453;DHT22;5274;51.992;8.518;2022-12-16T15:12:22;-0.50;99.90
10453;DHT22;5274;51.992;8.518;2022-12-16T15:15:30;-0.60;1.00
10453;DHT22;5274;51.992;8.518;2022-12-16T15:18:20;-0.70;1.00
10453;DHT22;5274;51.992;8.518;2022-12-16T15:21:06;-0.90;44.90
10453;DHT22;5274;51.992;8.518;2022-12-16T15:23:50;-1.00;99.90
10453;DHT22;5274;51.992;8.518;2022-12-16T15:26:34;-1.10;99.90
10453;DHT22;5274;51.992;8.518;2022-12-16T15:35:31;-1.50;1.00
10453;DHT22;5274;51.992;8.518;2022-12-16T15:41:01;-1.70;99.90
10453;DHT22;5274;51.992;8.518;2022-12-16T15:43:46;-1.80;99.90
10453;DHT22;5274;51.992;8.518;2022-12-16T15:46:31;-1.90;1.00
10453;DHT22;5274;51.992;8.518;2022-12-16T15:49:26;-2.00;1.00
10453;DHT22;5274;51.992;8.518;2022-12-16T15:52:33;-2.10;1.00
10453;DHT22;5274;51.992;8.518;2022-12-16T15:58:31;-2.30;1.00
10453;DHT22;5274;51.992;8.518;2022-12-16T16:01:21;-2.30;1.00
10453;DHT22;5274;51.992;8.518;2022-12-16T16:04:27;-2.40;1.00
10453;DHT22;5274;51.992;8.518;2022-12-16T16:07:18;-2.50;99.90
10453;DHT22;5274;51.992;8.518;2022-12-16T16:10:13;-2.60;99.90
10453;DHT22;5274;51.992;8.518;2022-12-16T16:12:57;-2.70;99.90
10453;DHT22;5274;51.992;8.518;2022-12-16T16:15:41;-2.70;1.00
10453;DHT22;5274;51.992;8.518;2022-12-16T16:18:25;-2.80;1.00
10453;DHT22;5274;51.992;8.518;2022-12-16T16:21:09;-2.90;1.00
10453;DHT22;5274;51.992;8.518;2022-12-16T16:24:10;-3.00;71.40
10453;DHT22;5274;51.992;8.518;2022-12-16T16:26:55;-3.10;99.90
10453;DHT22;5274;51.992;8.518;2022-12-16T16:29:40;-3.10;1.00
10453;DHT22;5274;51.992;8.518;2022-12-16T16:32:24;-3.10;1.00
10453;DHT22;5274;51.992;8.518;2022-12-16T16:35:08;-3.90;24.50
10453;DHT22;5274;51.992;8.518;2022-12-16T16:37:52;-3.30;99.90
10453;DHT22;5274;51.992;8.518;2022-12-16T16:40:39;-3.40;99.90
10453;DHT22;5274;51.992;8.518;2022-12-16T16:43:24;-3.40;1.00
10453;DHT22;5274;51.992;8.518;2022-12-16T16:46:36;-3.50;1.00
10453;DHT22;5274;51.992;8.518;2022-12-16T16:49:29;-3.60;1.00
10453;DHT22;5274;51.992;8.518;2022-12-16T16:52:19;-3.60;1.00
10453;DHT22;5274;51.992;8.518;2022-12-16T16:55:13;-3.70;1.00
10453;DHT22;5274;51.992;8.518;2022-12-16T16:57:57;-3.70;1.00
10453;DHT22;5274;51.992;8.518;2022-12-16T17:00:41;-3.80;14.80
10453;DHT22;5274;51.992;8.518;2022-12-16T17:03:25;-3.80;99.90
10453;DHT22;5274;51.992;8.518;2022-12-16T17:06:09;-3.90;99.90
10453;DHT22;5274;51.992;8.518;2022-12-16T17:08:53;-3.90;99.90
10453;DHT22;5274;51.992;8.518;2022-12-16T17:11:38;-4.00;99.90
10453;DHT22;5274;51.992;8.518;2022-12-16T17:14:22;-4.00;1.00
10453;DHT22;5274;51.992;8.518;2022-12-16T17:17:06;-4.10;1.00
10453;DHT22;5274;51.992;8.518;2022-12-16T17:19:50;-4.10;1.00
10453;DHT22;5274;51.992;8.518;2022-12-16T17:22:35;-4.10;15.50
10453;DHT22;5274;51.992;8.518;2022-12-16T17:25:19;-4.20;97.90
10453;DHT22;5274;51.992;8.518;2022-12-16T17:28:04;-4.20;99.90
10453;DHT22;5274;51.992;8.518;2022-12-16T17:30:48;-4.30;99.90
10453;DHT22;5274;51.992;8.518;2022-12-16T17:33:32;-4.30;99.90
10453;DHT22;5274;51.992;8.518;2022-12-16T17:36:17;-4.40;99.90
10453;DHT22;5274;51.992;8.518;2022-12-16T17:39:01;-4.40;99.90
10453;DHT22;5274;51.992;8.518;2022-12-16T17:41:46;-4.40;1.00
10453;DHT22;5274;51.992;8.518;2022-12-16T17:44:30;-4.50;1.00
10453;DHT22;5274;51.992;8.518;2022-12-16T17:47:15;-4.50;1.00
10453;DHT22;5274;51.992;8.518;2022-12-16T17:49:59;-4.50;1.00
10453;DHT22;5274;51.992;8.518;2022-12-16T17:52:44;-4.60;1.00
10453;DHT22;5274;51.992;8.518;2022-12-16T17:55:28;-4.60;99.90
10453;DHT22;5274;51.992;8.518;2022-12-16T17:58:12;-4.60;99.90
10453;DHT22;5274;51.992;8.518;2022-12-16T18:01:02;-4.60;99.90
10453;DHT22;5274;51.992;8.518;2022-12-16T18:03:46;-4.70;99.90
10453;DHT22;5274;51.992;8.518;2022-12-16T18:06:30;-4.70;99.90
10453;DHT22;5274;51.992;8.518;2022-12-16T18:09:14;-4.70;1.00
10453;DHT22;5274;51.992;8.518;2022-12-16T18:11:58;-4.70;1.00
10453;DHT22;5274;51.992;8.518;2022-12-16T18:14:42;-4.80;1.00
10453;DHT22;5274;51.992;8.518;2022-12-16T18:17:26;-4.80;1.00
10453;DHT22;5274;51.992;8.518;2022-12-16T18:20:10;-4.80;1.00
10453;DHT22;5274;51.992;8.518;2022-12-16T18:22:54;-4.90;1.00
10453;DHT22;5274;51.992;8.518;2022-12-16T18:25:38;-4.90;1.00
10453;DHT22;5274;51.992;8.518;2022-12-16T18:28:23;-4.90;1.00
10453;DHT22;5274;51.992;8.518;2022-12-16T18:31:07;-4.90;1.00
10453;DHT22;5274;51.992;8.518;2022-12-16T18:33:51;-5.00;1.00
10453;DHT22;5274;51.992;8.518;2022-12-16T18:36:35;-5.00;1.00
10453;DHT22;5274;51.992;8.518;2022-12-16T18:39:19;-5.10;1.00
10453;DHT22;5274;51.992;8.518;2022-12-16T18:42:03;-5.10;1.00
10453;DHT22;5274;51.992;8.518;2022-12-16T18:44:48;-5.10;1.00
10453;DHT22;5274;51.992;8.518;2022-12-16T18:47:33;-5.20;1.00
10453;DHT22;5274;51.992;8.518;2022-12-16T18:50:17;-5.10;1.00
10453;DHT22;5274;51.992;8.518;2022-12-16T18:53:01;-5.10;30.60
10453;DHT22;5274;51.992;8.518;2022-12-16T18:55:45;-5.10;51.10
10453;DHT22;5274;51.992;8.518;2022-12-16T18:58:29;-5.20;93.30
10453;DHT22;5274;51.992;8.518;2022-12-16T19:01:13;-5.20;99.90
10453;DHT22;5274;51.992;8.518;2022-12-16T19:03:57;-5.20;99.90
10453;DHT22;5274;51.992;8.518;2022-12-16T19:06:41;-5.20;99.90
10453;DHT22;5274;51.992;8.518;2022-12-16T19:09:25;-5.20;99.90
10453;DHT22;5274;51.992;8.518;2022-12-16T19:12:10;-5.20;99.90
10453;DHT22;5274;51.992;8.518;2022-12-16T19:14:54;-5.30;99.90
10453;DHT22;5274;51.992;8.518;2022-12-16T19:17:38;-5.30;99.90
10453;DHT22;5274;51.992;8.518;2022-12-16T19:20:22;-5.30;99.90
10453;DHT22;5274;51.992;8.518;2022-12-16T19:23:06;-5.40;99.90
10453;DHT22;5274;51.992;8.518;2022-12-16T19:25:57;-5.40;99.90
10453;DHT22;5274;51.992;8.518;2022-12-16T19:28:42;-5.40;99.90
10453;DHT22;5274;51.992;8.518;2022-12-16T19:31:27;-5.40;99.90
10453;DHT22;5274;51.992;8.518;2022-12-16T19:34:11;-5.40;99.90
10453;DHT22;5274;51.992;8.518;2022-12-16T19:36:55;-5.50;99.90
10453;DHT22;5274;51.992;8.518;2022-12-16T19:39:39;-5.40;99.90
10453;DHT22;5274;51.992;8.518;2022-12-16T19:42:23;-5.50;99.90